Time;durP1;ratioP1;P1;durP2;ratioP2;P2;SDS_P1;SDS_P2;PMS_P1;PMS_P2;Temp;Humidity;BMP_temperature;BMP_pressure;BME280_temperature;BME280_humidity;BME280_pressure;Samples;Min_cycle;Max_cycle;Signal;HPM_P1;HPM_P2
2022/02/25 00:00:06;;;;;;;1.63;1.00;;;22.80;30.70;;;;;;5110142;28;20423;-70
2022/02/25 00:02:32;;;;;;;1.40;0.90;;;22.80;30.90;;;;;;5109861;28;20462;-70
2022/02/25 00:04:57;;;;;;;1.35;0.90;;;22.80;31.10;;;;;;5110143;28;20415;-70
2022/02/25 00:07:23;;;;;;;1.48;1.00;;;22.80;30.80;;;;;;5111533;28;20376;-70
2022/02/25 00:09:48;;;;;;;2.20;1.00;;;22.70;30.80;;;;;;5110100;28;21002;-70
2022/02/25 00:12:14;;;;;;;1.60;0.93;;;22.80;30.80;;;;;;5111254;28;20377;-70
2022/02/25 00:14:40;;;;;;;1.50;1.05;;;22.80;30.70;;;;;;5111112;28;20425;-70
2022/02/25 00:17:06;;;;;;;1.57;1.10;;;22.80;30.70;;;;;;5127100;28;20380;-70
2022/02/25 00:19:32;;;;;;;2.20;1.10;;;22.80;31.00;;;;;;5110079;28;20415;-69
2022/02/25 00:21:57;;;;;;;1.48;0.80;;;22.80;30.80;;;;;;5113430;28;20381;-70
2022/02/25 00:24:23;;;;;;;1.60;0.93;;;22.80;30.70;;;;;;5113393;28;20441;-69
2022/02/25 00:26:48;;;;;;;1.33;0.80;;;22.70;30.70;;;;;;5114706;28;20388;-70
2022/02/25 00:29:14;;;;;;;1.20;0.80;;;22.70;30.90;;;;;;5115006;28;20400;-70
2022/02/25 00:31:40;;;;;;;1.45;1.00;;;22.70;30.90;;;;;;5114664;28;20384;-71
2022/02/25 00:34:05;;;;;;;2.17;1.00;;;22.70;30.90;;;;;;5113558;28;20430;-69
2022/02/25 00:36:31;;;;;;;1.70;1.00;;;22.60;30.80;;;;;;5112936;28;20419;-69
2022/02/25 00:38:57;;;;;;;1.40;1.00;;;22.60;30.80;;;;;;5112756;28;20427;-71
2022/02/25 00:41:22;;;;;;;1.57;0.90;;;22.60;30.90;;;;;;5114560;28;20388;-70
2022/02/25 00:43:48;;;;;;;1.45;0.90;;;22.60;30.80;;;;;;5114576;28;20388;-70
2022/02/25 00:46:14;;;;;;;1.50;1.00;;;22.60;30.80;;;;;;5130322;27;20886;-69
2022/02/25 00:48:39;;;;;;;1.85;1.20;;;22.60;30.80;;;;;;5114744;28;20472;-70
2022/02/25 00:51:05;;;;;;;1.53;1.00;;;22.60;30.80;;;;;;5114314;28;20391;-70
2022/02/25 00:53:31;;;;;;;2.00;1.13;;;22.60;30.80;;;;;;5113241;28;20419;-70
2022/02/25 00:55:58;;;;;;;1.77;0.87;;;22.60;30.80;;;;;;5113362;28;20437;-71
2022/02/25 00:58:24;;;;;;;1.50;1.02;;;22.60;30.90;;;;;;5110607;28;20439;-70
2022/02/25 01:00:49;;;;;;;1.60;0.95;;;22.50;30.80;;;;;;5114064;28;20428;-71
2022/02/25 01:03:15;;;;;;;1.73;1.00;;;22.50;30.90;;;;;;5130214;27;20479;-70
2022/02/25 01:05:41;;;;;;;1.20;0.93;;;22.50;31.00;;;;;;5114290;28;20427;-71
2022/02/25 01:08:08;;;;;;;1.60;1.00;;;22.50;31.00;;;;;;5114222;28;20865;-69
2022/02/25 01:10:35;;;;;;;1.77;1.10;;;22.50;31.00;;;;;;5112463;28;20441;-70
2022/02/25 01:13:02;;;;;;;1.10;0.80;;;22.50;31.00;;;;;;5114119;27;20379;-70
2022/02/25 01:15:28;;;;;;;1.40;0.70;;;22.50;31.00;;;;;;5114198;28;20381;-70
2022/02/25 01:17:53;;;;;;;1.33;0.90;;;22.50;31.00;;;;;;5114085;28;20554;-69
2022/02/25 01:20:19;;;;;;;2.08;0.90;;;22.50;31.00;;;;;;5112403;28;20537;-70
2022/02/25 01:22:45;;;;;;;1.73;0.90;;;22.50;30.90;;;;;;5113618;28;20395;-69
2022/02/25 01:25:12;;;;;;;1.60;0.90;;;22.50;31.00;;;;;;5112554;28;20757;-69
2022/02/25 01:27:38;;;;;;;1.35;0.90;;;22.40;30.90;;;;;;5112647;28;20750;-70
2022/02/25 01:30:07;;;;;;;1.10;0.80;;;22.40;31.00;;;;;;5112592;28;20393;-70
2022/02/25 01:32:33;;;;;;;1.20;0.90;;;22.40;31.00;;;;;;5111067;28;20436;-70
2022/02/25 01:34:59;;;;;;;1.60;1.03;;;22.40;31.00;;;;;;5113808;28;20481;-70
2022/02/25 01:37:25;;;;;;;1.40;1.10;;;22.40;31.30;;;;;;5112527;28;20754;-70
2022/02/25 01:39:51;;;;;;;1.45;0.80;;;22.40;31.10;;;;;;5113581;28;20411;-70
2022/02/25 01:42:17;;;;;;;1.33;0.90;;;22.40;31.00;;;;;;5112346;28;20893;-70
2022/02/25 01:44:43;;;;;;;1.25;0.90;;;22.40;31.00;;;;;;5113188;28;20442;-69
2022/02/25 01:47:14;;;;;;;1.20;0.90;;;22.40;31.10;;;;;;5113615;28;20464;-69
2022/02/25 01:49:40;;;;;;;1.20;0.80;;;22.40;31.10;;;;;;5112228;28;20396;-70
2022/02/25 01:52:12;;;;;;;1.45;0.85;;;22.40;31.10;;;;;;5113353;28;20870;-70
2022/02/25 01:54:38;;;;;;;2.35;0.80;;;22.40;31.10;;;;;;5112314;28;20412;-70
2022/02/25 01:57:05;;;;;;;1.30;0.90;;;22.40;31.10;;;;;;5112918;28;20381;-69
2022/02/25 01:59:33;;;;;;;1.20;0.80;;;22.40;31.20;;;;;;5113188;28;20431;-71
2022/02/25 02:01:59;;;;;;;1.27;0.70;;;22.40;31.10;;;;;;5113494;28;20467;-69
2022/02/25 02:04:25;;;;;;;1.25;0.70;;;22.40;31.10;;;;;;5113155;28;20471;-71
2022/02/25 02:06:52;;;;;;;1.15;0.70;;;22.30;31.00;;;;;;5113129;28;20467;-70
2022/02/25 02:09:17;;;;;;;1.02;0.70;;;22.40;31.10;;;;;;5113096;28;20441;-70
2022/02/25 02:11:46;;;;;;;1.33;0.88;;;22.30;31.00;;;;;;5111676;28;20385;-70
2022/02/25 02:14:17;;;;;;;0.98;0.73;;;22.40;31.10;;;;;;5111472;28;20388;-69
2022/02/25 02:16:48;;;;;;;1.55;0.80;;;22.30;31.10;;;;;;5128238;27;20746;-69
2022/02/25 02:19:15;;;;;;;1.30;0.80;;;22.40;31.00;;;;;;5112701;28;20904;-69
2022/02/25 02:21:43;;;;;;;1.10;0.70;;;22.30;31.00;;;;;;5112792;28;20388;-69
2022/02/25 02:24:08;;;;;;;1.27;0.73;;;22.40;31.00;;;;;;5128528;27;20862;-70
2022/02/25 02:26:34;;;;;;;1.10;0.70;;;22.40;31.00;;;;;;5112352;28;20939;-69
2022/02/25 02:29:00;;;;;;;1.10;0.65;;;22.40;31.00;;;;;;5111388;28;20784;-70
2022/02/25 02:31:26;;;;;;;1.60;0.90;;;22.40;31.00;;;;;;5112808;28;20384;-70
2022/02/25 02:33:52;;;;;;;1.55;0.77;;;22.40;31.00;;;;;;5112659;28;20401;-69
2022/02/25 02:36:18;;;;;;;1.30;0.80;;;22.40;31.10;;;;;;5111404;28;20389;-69
2022/02/25 02:38:45;;;;;;;1.20;0.80;;;22.40;31.10;;;;;;5111847;28;20458;-69
2022/02/25 02:41:12;;;;;;;1.40;1.00;;;22.40;31.20;;;;;;5111285;28;20434;-70
2022/02/25 02:43:38;;;;;;;1.20;0.80;;;22.30;31.50;;;;;;5112320;28;20487;-70
2022/02/25 02:46:07;;;;;;;1.10;0.75;;;22.30;31.00;;;;;;5111034;28;20419;-69
2022/02/25 02:48:33;;;;;;;1.15;0.80;;;22.30;31.00;;;;;;5112041;28;20384;-70
2022/02/25 02:51:00;;;;;;;1.08;0.70;;;22.30;31.00;;;;;;5112418;28;20384;-69
2022/02/25 02:53:25;;;;;;;1.20;0.80;;;22.30;31.00;;;;;;5112255;28;20866;-69
2022/02/25 02:55:51;;;;;;;1.00;0.70;;;22.30;31.10;;;;;;5111902;28;20398;-70
2022/02/25 02:58:17;;;;;;;1.02;0.63;;;22.30;31.00;;;;;;5110988;28;20381;-69
2022/02/25 03:00:44;;;;;;;1.43;0.80;;;22.30;31.10;;;;;;5111522;28;20399;-70
2022/02/25 03:03:11;;;;;;;1.13;0.80;;;22.30;31.00;;;;;;5112209;28;20445;-69
2022/02/25 03:05:38;;;;;;;1.50;0.82;;;22.30;31.10;;;;;;5112149;28;20380;-70
2022/02/25 03:08:05;;;;;;;1.10;0.70;;;22.30;31.00;;;;;;5112161;28;20712;-70
2022/02/25 03:10:32;;;;;;;0.95;0.60;;;22.30;30.90;;;;;;5111104;28;20433;-70
2022/02/25 03:12:57;;;;;;;1.20;0.77;;;22.30;31.00;;;;;;5110264;28;20380;-69
2022/02/25 03:15:23;;;;;;;1.00;0.70;;;22.30;31.00;;;;;;5111953;28;20388;-70
2022/02/25 03:17:49;;;;;;;1.13;0.68;;;22.30;31.00;;;;;;5111962;28;20456;-70
2022/02/25 03:20:15;;;;;;;1.40;0.80;;;22.30;31.00;;;;;;5111917;28;20522;-69
2022/02/25 03:22:41;;;;;;;1.05;0.70;;;22.30;30.90;;;;;;5111293;28;20407;-69
2022/02/25 03:25:08;;;;;;;0.90;0.60;;;22.30;31.00;;;;;;5111934;28;20388;-70
2022/02/25 03:27:34;;;;;;;1.10;0.80;;;22.30;31.00;;;;;;5111926;28;20441;-70
2022/02/25 03:29:59;;;;;;;1.27;0.82;;;22.30;31.10;;;;;;5111847;28;20419;-69
2022/02/25 03:32:25;;;;;;;1.30;0.80;;;22.20;31.00;;;;;;5111608;28;20412;-70
2022/02/25 03:34:52;;;;;;;0.90;0.60;;;22.30;31.00;;;;;;5110302;28;20393;-70
2022/02/25 03:37:19;;;;;;;1.20;0.80;;;22.20;31.00;;;;;;5111804;28;20431;-69
2022/02/25 03:39:45;;;;;;;1.10;0.80;;;22.20;31.00;;;;;;5110023;28;20494;-71
2022/02/25 03:42:10;;;;;;;0.90;0.70;;;22.20;31.00;;;;;;5111702;28;20415;-70
2022/02/25 03:44:36;;;;;;;1.08;0.77;;;22.20;31.00;;;;;;5111200;28;20435;-69
2022/02/25 03:47:03;;;;;;;0.87;0.70;;;22.20;31.00;;;;;;5111654;28;20441;-69
2022/02/25 03:49:29;;;;;;;0.90;0.70;;;22.20;31.00;;;;;;5110470;28;20380;-69
2022/02/25 03:51:55;;;;;;;0.82;0.60;;;22.20;31.00;;;;;;5111196;28;20479;-70
2022/02/25 03:54:21;;;;;;;1.15;0.63;;;22.10;31.10;;;;;;5111445;28;20388;-69
2022/02/25 03:56:46;;;;;;;1.10;0.70;;;22.20;31.10;;;;;;5114836;28;20384;-70
2022/02/25 03:59:12;;;;;;;1.20;0.70;;;22.20;31.00;;;;;;5115562;28;20411;-69
2022/02/25 04:01:38;;;;;;;0.90;0.60;;;22.10;31.00;;;;;;5114276;28;20769;-70
2022/02/25 04:04:04;;;;;;;0.90;0.60;;;22.10;31.10;;;;;;5115594;28;20479;-69
2022/02/25 04:06:33;;;;;;;1.00;0.63;;;22.20;30.90;;;;;;5114078;28;20376;-70
2022/02/25 04:08:59;;;;;;;0.80;0.60;;;22.30;31.50;;;;;;5114087;28;20415;-70
2022/02/25 04:11:26;;;;;;;5.05;1.65;;;22.30;31.10;;;;;;5115045;28;20415;-69
2022/02/25 04:13:53;;;;;;;3.42;1.55;;;22.30;32.40;;;;;;5114926;28;20414;-71
2022/02/25 04:16:20;;;;;;;3.30;1.30;;;22.40;31.70;;;;;;5114182;28;20900;-69
2022/02/25 04:18:46;;;;;;;5.13;0.98;;;22.40;32.40;;;;;;5114522;28;20502;-69
2022/02/25 04:21:13;;;;;;;6.07;1.10;;;22.40;33.70;;;;;;5113669;28;20486;-70
2022/02/25 04:23:40;;;;;;;5.50;0.90;;;22.50;33.50;;;;;;5113909;28;20419;-70
2022/02/25 04:26:05;;;;;;;7.22;0.90;;;22.60;33.70;;;;;;5115115;28;20396;-70
2022/02/25 04:28:31;;;;;;;4.27;0.83;;;22.60;33.70;;;;;;5113181;28;20754;-69
2022/02/25 04:30:57;;;;;;;7.30;0.80;;;22.60;33.70;;;;;;5113745;28;20441;-70
2022/02/25 04:33:23;;;;;;;6.17;0.80;;;22.60;33.60;;;;;;5113328;28;20512;-70
2022/02/25 04:35:49;;;;;;;2.00;0.70;;;22.70;34.20;;;;;;5114662;27;20412;-69
2022/02/25 04:38:14;;;;;;;2.67;0.85;;;22.70;34.30;;;;;;5114143;28;20384;-70
2022/02/25 04:40:41;;;;;;;4.67;0.83;;;22.60;33.90;;;;;;5112710;28;20404;-70
2022/02/25 04:43:07;;;;;;;3.85;0.88;;;22.60;33.80;;;;;;5112848;28;20435;-70
2022/02/25 04:45:33;;;;;;;2.80;0.82;;;22.60;33.60;;;;;;5114673;28;20404;-70
2022/02/25 04:47:59;;;;;;;4.30;0.60;;;22.60;33.30;;;;;;5130438;27;20419;-70
2022/02/25 04:50:25;;;;;;;4.90;0.60;;;22.60;33.80;;;;;;5130167;27;20734;-70
2022/02/25 04:52:51;;;;;;;4.40;0.70;;;22.60;34.00;;;;;;5113083;28;20877;-69
2022/02/25 04:55:19;;;;;;;3.60;0.87;;;22.60;34.10;;;;;;5113714;28;20403;-69
2022/02/25 04:57:45;;;;;;;3.50;0.70;;;22.60;34.20;;;;;;5112786;28;20392;-69
2022/02/25 05:00:13;;;;;;;1.17;0.68;;;22.60;34.80;;;;;;5114060;28;20408;-69
2022/02/25 05:02:43;;;;;;;4.80;0.60;;;22.60;34.20;;;;;;5113818;28;20380;-69
2022/02/25 05:05:09;;;;;;;1.35;0.50;;;22.60;33.80;;;;;;5114314;28;20399;-69
2022/02/25 05:07:35;;;;;;;1.23;0.50;;;22.50;33.60;;;;;;5114221;28;20384;-69
2022/02/25 05:10:00;;;;;;;5.33;0.60;;;22.40;33.20;;;;;;5114963;28;20385;-69
2022/02/25 05:12:26;;;;;;;2.65;0.60;;;22.40;34.00;;;;;;5114274;28;20422;-70
2022/02/25 05:20:26;;;;;;;3.30;0.80;;;22.40;33.10;;;;;;5113957;28;20411;-70
2022/02/25 05:22:57;;;;;;;2.55;0.60;;;22.40;33.50;;;;;;5113527;28;20389;-70
2022/02/25 05:25:24;;;;;;;2.85;0.63;;;22.30;33.30;;;;;;5129879;27;20488;-70
2022/02/25 05:27:51;;;;;;;2.15;0.50;;;22.30;33.40;;;;;;5113869;28;20388;-70
2022/02/25 05:30:16;;;;;;;3.70;0.60;;;22.30;33.00;;;;;;5113232;28;20388;-69
2022/02/25 05:32:44;;;;;;;1.58;0.65;;;22.30;32.60;;;;;;5111274;28;20392;-69
2022/02/25 05:35:10;;;;;;;1.10;0.57;;;22.30;32.50;;;;;;5113369;28;20876;-70
2022/02/25 05:37:40;;;;;;;2.00;0.75;;;22.40;32.40;;;;;;5113470;28;20384;-71
2022/02/25 05:40:08;;;;;;;5.47;0.80;;;22.40;32.20;;;;;;5113417;28;20469;-69
2022/02/25 05:42:35;;;;;;;6.10;0.83;;;22.50;31.90;;;;;;5113091;28;20442;-70
2022/02/25 05:45:02;;;;;;;5.68;1.02;;;22.50;32.00;;;;;;5111816;28;20393;-69
2022/02/25 05:47:28;;;;;;;3.55;0.80;;;22.50;32.20;;;;;;5112053;28;20890;-69
2022/02/25 05:49:54;;;;;;;5.20;0.85;;;22.50;32.30;;;;;;5112080;28;20420;-69
2022/02/25 05:52:20;;;;;;;3.00;0.70;;;22.50;32.20;;;;;;5112164;28;20388;-69
2022/02/25 05:54:46;;;;;;;3.05;0.70;;;22.50;32.20;;;;;;5112900;28;20387;-69
2022/02/25 05:57:14;;;;;;;2.50;0.70;;;22.50;32.40;;;;;;5111760;28;20564;-69
2022/02/25 05:59:40;;;;;;;3.35;0.77;;;22.40;32.00;;;;;;5111198;28;20920;-70
2022/02/25 06:02:07;;;;;;;1.65;0.70;;;22.40;32.10;;;;;;5112664;28;20391;-69
2022/02/25 06:04:32;;;;;;;1.73;0.60;;;22.40;31.70;;;;;;5112978;28;20385;-69
2022/02/25 06:06:58;;;;;;;3.10;0.50;;;22.40;31.90;;;;;;5112662;28;20951;-69
2022/02/25 06:09:24;;;;;;;1.80;0.60;;;22.30;31.80;;;;;;5113113;28;20386;-69
2022/02/25 06:11:49;;;;;;;2.05;0.50;;;22.30;32.00;;;;;;5111438;28;20715;-69
2022/02/25 06:14:15;;;;;;;2.33;0.67;;;22.30;31.40;;;;;;5111231;28;20396;-70
2022/02/25 06:16:41;;;;;;;2.60;0.70;;;22.30;31.40;;;;;;5110817;28;20391;-70
2022/02/25 06:19:07;;;;;;;1.20;0.60;;;22.30;31.40;;;;;;5112250;28;20409;-71
2022/02/25 06:21:33;;;;;;;1.90;0.70;;;22.30;31.20;;;;;;5111529;28;20387;-69
2022/02/25 06:23:59;;;;;;;1.23;0.50;;;22.30;31.20;;;;;;5112869;28;20385;-70
2022/02/25 06:26:24;;;;;;;1.50;0.60;;;22.20;31.20;;;;;;5112651;28;20865;-70
2022/02/25 06:28:50;;;;;;;1.30;0.40;;;22.20;31.00;;;;;;5110965;28;20442;-69
2022/02/25 06:31:16;;;;;;;2.80;0.50;;;22.20;31.10;;;;;;5111093;28;20878;-69
2022/02/25 06:33:42;;;;;;;1.10;0.50;;;22.20;31.10;;;;;;5112645;28;20434;-69
2022/02/25 06:36:07;;;;;;;0.85;0.50;;;22.20;31.20;;;;;;5111353;28;20391;-70
2022/02/25 06:38:33;;;;;;;0.90;0.50;;;22.10;30.90;;;;;;5111060;28;20739;-69
2022/02/25 06:40:59;;;;;;;1.40;0.50;;;22.10;30.80;;;;;;5112288;28;20776;-69
2022/02/25 06:43:25;;;;;;;1.30;0.60;;;22.10;30.80;;;;;;5112372;28;20791;-69
2022/02/25 06:45:51;;;;;;;1.38;0.30;;;22.10;31.10;;;;;;5112211;28;20404;-70
2022/02/25 06:48:16;;;;;;;1.92;0.50;;;22.10;30.70;;;;;;5111245;28;20380;-70
2022/02/25 06:50:42;;;;;;;1.03;0.33;;;22.00;30.90;;;;;;5111898;28;20399;-69
2022/02/25 06:53:08;;;;;;;1.27;0.47;;;22.00;30.60;;;;;;5111991;28;20387;-70
2022/02/25 06:55:34;;;;;;;1.03;0.37;;;22.00;30.60;;;;;;5112307;28;20467;-70
2022/02/25 06:58:02;;;;;;;0.88;0.40;;;22.00;31.10;;;;;;5112258;28;20456;-69
2022/02/25 07:00:27;;;;;;;0.80;0.30;;;22.00;30.50;;;;;;5111848;28;20969;-69
2022/02/25 07:02:54;;;;;;;0.70;0.30;;;22.00;30.40;;;;;;5111762;28;20384;-69
2022/02/25 07:05:20;;;;;;;1.20;0.35;;;22.00;30.30;;;;;;5112232;28;20429;-69
2022/02/25 07:07:47;;;;;;;0.80;0.40;;;22.00;30.20;;;;;;5112165;28;20836;-69
2022/02/25 07:10:14;;;;;;;0.70;0.30;;;22.00;30.30;;;;;;5111803;28;20380;-70
2022/02/25 07:12:40;;;;;;;0.55;0.30;;;22.00;30.80;;;;;;5111732;28;20387;-69
2022/02/25 07:15:08;;;;;;;1.48;0.47;;;22.00;30.40;;;;;;5112007;28;20411;-69
2022/02/25 07:17:34;;;;;;;1.65;0.45;;;22.00;30.50;;;;;;5112046;28;20420;-69
2022/02/25 07:20:00;;;;;;;0.82;0.40;;;22.00;30.50;;;;;;5111878;28;20982;-70
2022/02/25 07:22:25;;;;;;;1.00;0.40;;;22.00;30.60;;;;;;5110650;28;20389;-68
2022/02/25 07:24:52;;;;;;;0.70;0.40;;;22.00;30.50;;;;;;5110182;28;20392;-69
2022/02/25 07:27:18;;;;;;;1.17;0.35;;;22.00;30.30;;;;;;5110707;28;20393;-70
2022/02/25 07:29:43;;;;;;;0.60;0.50;;;21.90;30.20;;;;;;5112226;28;20487;-69
2022/02/25 07:32:09;;;;;;;0.90;0.50;;;21.90;30.30;;;;;;5116122;28;20393;-69
2022/02/25 07:34:34;;;;;;;1.10;0.43;;;21.90;30.30;;;;;;5116140;28;20400;-69
2022/02/25 07:37:00;;;;;;;0.55;0.32;;;21.90;30.40;;;;;;5114218;28;20396;-69
2022/02/25 07:39:26;;;;;;;0.77;0.30;;;21.90;30.30;;;;;;5114501;28;20495;-70
2022/02/25 07:41:52;;;;;;;0.90;0.40;;;21.90;30.20;;;;;;5115965;28;20472;-70
2022/02/25 07:44:17;;;;;;;0.60;0.40;;;21.90;30.20;;;;;;5115970;28;20388;-70
2022/02/25 07:46:43;;;;;;;0.85;0.40;;;21.90;30.20;;;;;;5114793;28;20491;-69
2022/02/25 07:49:09;;;;;;;0.70;0.40;;;21.80;30.20;;;;;;5115852;28;20385;-70
2022/02/25 07:51:35;;;;;;;0.45;0.30;;;21.90;30.60;;;;;;5114600;28;20385;-69
2022/02/25 07:54:04;;;;;;;0.50;0.40;;;21.90;30.10;;;;;;5115752;28;20796;-69
2022/02/25 07:56:30;;;;;;;0.50;0.30;;;21.90;30.20;;;;;;5114472;28;20392;-70
2022/02/25 07:58:56;;;;;;;1.13;0.38;;;21.80;30.30;;;;;;5115092;28;20411;-69
2022/02/25 08:01:22;;;;;;;0.65;0.40;;;21.80;30.30;;;;;;5115648;28;20468;-70
2022/02/25 08:03:48;;;;;;;0.70;0.30;;;21.80;30.20;;;;;;5114419;28;20516;-70
2022/02/25 08:06:13;;;;;;;0.60;0.40;;;21.80;30.20;;;;;;5115576;28;20384;-69
2022/02/25 08:08:40;;;;;;;0.52;0.30;;;21.80;30.10;;;;;;5115353;28;20471;-69
2022/02/25 08:11:06;;;;;;;0.60;0.40;;;21.80;30.20;;;;;;5113909;28;20403;-69
2022/02/25 08:13:32;;;;;;;1.05;0.30;;;21.80;30.10;;;;;;5114206;28;20385;-69
2022/02/25 08:15:58;;;;;;;0.30;0.20;;;21.80;30.00;;;;;;5114069;28;20384;-69
2022/02/25 08:18:25;;;;;;;0.60;0.30;;;21.80;30.20;;;;;;5115054;28;20419;-69
2022/02/25 08:20:50;;;;;;;0.40;0.30;;;21.80;30.20;;;;;;5113525;28;20423;-70
2022/02/25 08:23:16;;;;;;;0.50;0.30;;;21.80;30.00;;;;;;5115301;28;20395;-69
2022/02/25 08:25:42;;;;;;;0.50;0.30;;;21.80;30.00;;;;;;5115212;28;20384;-69
2022/02/25 08:28:09;;;;;;;0.40;0.30;;;21.90;30.10;;;;;;5113960;28;20380;-70
2022/02/25 08:30:36;;;;;;;0.80;0.30;;;21.80;30.10;;;;;;5113747;28;20399;-70
2022/02/25 08:33:02;;;;;;;0.40;0.28;;;21.80;30.10;;;;;;5113328;28;20385;-70
2022/02/25 08:35:34;;;;;;;0.60;0.30;;;21.90;30.10;;;;;;5114906;27;20395;-70
2022/02/25 08:38:02;;;;;;;0.65;0.30;;;21.90;30.20;;;;;;5113616;28;20408;-70
2022/02/25 08:40:28;;;;;;;0.40;0.30;;;21.90;30.10;;;;;;5114571;28;20492;-69
2022/02/25 08:42:54;;;;;;;0.43;0.32;;;21.90;30.10;;;;;;5112983;28;20471;-70
2022/02/25 08:45:21;;;;;;;0.40;0.30;;;21.80;30.00;;;;;;5113311;28;20404;-70
2022/02/25 08:47:47;;;;;;;0.65;0.38;;;21.90;30.20;;;;;;5114676;28;20377;-70
2022/02/25 08:50:16;;;;;;;0.57;0.40;;;21.80;30.00;;;;;;5114677;28;20395;-70
2022/02/25 08:52:43;;;;;;;0.80;0.35;;;21.90;30.00;;;;;;5113125;28;20392;-70
2022/02/25 08:55:09;;;;;;;0.90;0.40;;;21.90;30.00;;;;;;5114406;28;20388;-70
2022/02/25 08:57:37;;;;;;;0.50;0.40;;;21.80;30.10;;;;;;5113053;28;20916;-70
2022/02/25 09:00:08;;;;;;;0.40;0.30;;;21.80;30.00;;;;;;5114454;28;20439;-70
2022/02/25 09:02:33;;;;;;;0.57;0.40;;;21.80;30.00;;;;;;5114516;28;20384;-70
2022/02/25 09:05:02;;;;;;;0.63;0.40;;;21.80;30.00;;;;;;5113812;28;20392;-70
2022/02/25 09:07:28;;;;;;;0.68;0.43;;;21.80;30.00;;;;;;5114384;28;20467;-70
2022/02/25 09:09:53;;;;;;;0.50;0.30;;;21.80;30.00;;;;;;5114284;28;20472;-70
2022/02/25 09:12:19;;;;;;;0.60;0.40;;;21.90;30.00;;;;;;5113066;28;20525;-69
2022/02/25 09:14:44;;;;;;;0.80;0.30;;;21.90;30.00;;;;;;5112680;28;20422;-69
2022/02/25 09:17:10;;;;;;;0.57;0.30;;;21.90;30.00;;;;;;5113791;28;20429;-69
2022/02/25 09:19:36;;;;;;;0.50;0.30;;;21.90;29.90;;;;;;5114062;28;20447;-70
2022/02/25 09:22:02;;;;;;;0.50;0.30;;;21.90;30.00;;;;;;5113832;28;20388;-69
2022/02/25 09:24:28;;;;;;;0.50;0.30;;;21.90;30.00;;;;;;5114015;28;20441;-69
2022/02/25 09:26:54;;;;;;;0.50;0.40;;;21.90;30.00;;;;;;5113422;28;20884;-69
2022/02/25 09:29:19;;;;;;;0.50;0.30;;;21.90;30.00;;;;;;5113902;28;20746;-69
2022/02/25 09:31:45;;;;;;;0.50;0.30;;;21.80;30.50;;;;;;5112617;28;20388;-69
2022/02/25 09:34:11;;;;;;;0.63;0.30;;;21.80;30.00;;;;;;5113965;28;20373;-69
2022/02/25 09:36:37;;;;;;;1.42;0.40;;;21.90;30.00;;;;;;5112505;28;20408;-69
2022/02/25 09:39:03;;;;;;;0.68;0.30;;;21.90;30.00;;;;;;5112967;28;20408;-69
2022/02/25 09:41:31;;;;;;;0.82;0.30;;;21.90;30.00;;;;;;5112347;28;20384;-69
2022/02/25 09:43:56;;;;;;;0.52;0.30;;;21.90;30.00;;;;;;5113662;28;20377;-69
2022/02/25 09:46:23;;;;;;;0.77;0.28;;;21.90;30.00;;;;;;5111915;28;20412;-69
2022/02/25 09:48:48;;;;;;;0.90;0.30;;;21.90;30.00;;;;;;5113077;28;20445;-69
2022/02/25 09:51:14;;;;;;;0.65;0.40;;;21.90;30.00;;;;;;5113360;28;20388;-70
2022/02/25 09:53:40;;;;;;;0.50;0.30;;;21.90;30.00;;;;;;5112560;28;20476;-69
2022/02/25 09:56:06;;;;;;;0.50;0.22;;;21.90;29.90;;;;;;5113496;28;20391;-69
2022/02/25 09:58:32;;;;;;;0.53;0.33;;;22.00;30.00;;;;;;5112067;28;20396;-70
2022/02/25 10:00:57;;;;;;;0.65;0.30;;;22.00;30.00;;;;;;5111531;28;20413;-69
2022/02/25 10:03:25;;;;;;;0.52;0.32;;;22.00;30.00;;;;;;5113247;28;20850;-70
2022/02/25 10:05:51;;;;;;;0.50;0.30;;;22.10;29.90;;;;;;5113252;28;20392;-69
2022/02/25 10:08:23;;;;;;;0.50;0.30;;;22.10;29.80;;;;;;5111957;28;20385;-69
2022/02/25 10:10:53;;;;;;;0.50;0.30;;;22.00;29.80;;;;;;5112886;28;20369;-69
2022/02/25 10:13:21;;;;;;;0.70;0.30;;;22.00;29.80;;;;;;5113171;28;20502;-69
2022/02/25 10:15:49;;;;;;;0.80;0.32;;;22.10;29.90;;;;;;5113014;28;20372;-70
2022/02/25 10:18:18;;;;;;;0.50;0.28;;;22.10;29.90;;;;;;5112895;28;20393;-69
2022/02/25 10:20:46;;;;;;;0.80;0.40;;;22.00;30.00;;;;;;5111314;28;20400;-69
2022/02/25 10:23:22;;;;;;;0.50;0.30;;;22.10;29.80;;;;;;5111465;28;20882;-69
2022/02/25 10:25:49;;;;;;;0.60;0.40;;;22.10;29.70;;;;;;5112808;28;20396;-69
2022/02/25 10:28:17;;;;;;;0.50;0.30;;;22.20;29.80;;;;;;5111690;28;20932;-71
2022/02/25 10:30:43;;;;;;;0.73;0.40;;;22.20;29.80;;;;;;5111395;28;20397;-69
2022/02/25 10:33:08;;;;;;;0.70;0.50;;;22.20;29.80;;;;;;5112429;28;20388;-70
2022/02/25 10:35:37;;;;;;;0.80;0.50;;;22.20;29.80;;;;;;5111191;28;20739;-69
2022/02/25 10:38:06;;;;;;;0.85;0.50;;;22.20;29.90;;;;;;5112640;28;20380;-69
2022/02/25 10:40:40;;;;;;;1.10;0.70;;;22.30;29.80;;;;;;5112566;28;20408;-69
2022/02/25 10:43:17;;;;;;;1.37;0.60;;;22.20;29.70;;;;;;5112042;28;20512;-69
2022/02/25 10:45:46;;;;;;;1.15;0.68;;;22.30;29.80;;;;;;5112330;28;20400;-70
2022/02/25 10:48:15;;;;;;;1.20;0.60;;;22.30;29.80;;;;;;5111235;28;20392;-69
2022/02/25 10:50:54;;;;;;;1.10;0.60;;;22.30;29.90;;;;;;5112341;28;20475;-69
2022/02/25 10:53:36;;;;;;;1.20;0.80;;;22.20;29.80;;;;;;5110645;28;20564;-70
2022/02/25 10:56:16;;;;;;;1.73;0.80;;;22.30;29.80;;;;;;5112404;28;20865;-69
2022/02/25 10:58:48;;;;;;;1.45;0.85;;;22.30;29.70;;;;;;5110800;28;20411;-69
2022/02/25 11:01:16;;;;;;;1.00;0.60;;;22.30;29.50;;;;;;5112123;28;20746;-69
2022/02/25 11:03:57;;;;;;;1.00;0.60;;;22.40;29.50;;;;;;5112080;28;20376;-69
2022/02/25 11:06:24;;;;;;;1.08;0.80;;;22.40;29.50;;;;;;5112255;28;20900;-69
2022/02/25 11:08:52;;;;;;;1.50;0.70;;;22.30;29.40;;;;;;5111863;28;20414;-69
2022/02/25 11:11:21;;;;;;;1.60;0.70;;;22.40;29.50;;;;;;5112119;28;20384;-70
2022/02/25 11:13:48;;;;;;;1.02;0.60;;;22.40;29.90;;;;;;5112011;28;20403;-70
2022/02/25 11:16:14;;;;;;;1.02;0.50;;;22.40;29.30;;;;;;5112152;28;20395;-69
2022/02/25 11:18:40;;;;;;;1.13;0.67;;;22.40;29.20;;;;;;5110703;28;20486;-70
2022/02/25 11:21:07;;;;;;;1.00;0.60;;;22.50;29.20;;;;;;5111418;28;20507;-69
2022/02/25 11:23:32;;;;;;;1.10;0.55;;;22.50;29.10;;;;;;5112129;28;20381;-69
2022/02/25 11:26:00;;;;;;;1.35;0.65;;;22.60;29.10;;;;;;5110595;28;20389;-69
2022/02/25 11:28:26;;;;;;;1.08;0.60;;;22.60;29.10;;;;;;5111954;28;20735;-69
2022/02/25 11:31:06;;;;;;;1.08;0.70;;;22.60;29.10;;;;;;5111571;28;20476;-70
2022/02/25 11:33:32;;;;;;;1.50;0.53;;;22.60;29.00;;;;;;5111977;28;20467;-69
2022/02/25 11:36:01;;;;;;;1.08;0.60;;;22.60;29.00;;;;;;5111822;28;20399;-70
2022/02/25 11:38:28;;;;;;;1.00;0.52;;;22.60;29.10;;;;;;5111762;28;20930;-70
2022/02/25 11:40:59;;;;;;;1.77;0.60;;;22.60;28.90;;;;;;5111183;28;20396;-69
2022/02/25 11:43:51;;;;;;;1.60;0.60;;;22.60;28.00;;;;;;5110519;28;20396;-69
2022/02/25 11:46:29;;;;;;;1.40;0.60;;;22.60;28.00;;;;;;5110251;28;20415;-70
2022/02/25 11:49:08;;;;;;;1.73;0.55;;;23.10;30.20;;;;;;5111293;28;20418;-69
2022/02/25 11:51:41;;;;;;;2.33;0.70;;;23.70;28.70;;;;;;5111658;28;20412;-70
2022/02/25 11:54:40;;;;;;;2.15;0.70;;;24.00;28.90;;;;;;5110507;28;20384;-69
2022/02/25 11:57:08;;;;;;;3.30;0.80;;;24.30;28.70;;;;;;5094438;28;20423;-69
2022/02/25 11:59:33;;;;;;;2.30;0.80;;;24.30;29.00;;;;;;5110403;28;20468;-69
2022/02/25 12:02:05;;;;;;;2.40;0.80;;;24.40;29.10;;;;;;5109826;28;20396;-70
2022/02/25 12:04:32;;;;;;;5.43;0.80;;;25.40;29.70;;;;;;5110443;28;20402;-68
2022/02/25 12:07:04;;;;;;;2.72;0.73;;;24.60;29.20;;;;;;5109302;28;20415;-69
2022/02/25 12:09:50;;;;;;;2.78;0.88;;;24.70;29.10;;;;;;5111016;28;20487;-69
2022/02/25 12:12:28;;;;;;;2.90;0.75;;;24.80;28.90;;;;;;5111568;28;20412;-69
2022/02/25 12:15:01;;;;;;;7.78;1.10;;;24.80;28.90;;;;;;5110947;28;20893;-70
2022/02/25 12:17:35;;;;;;;5.63;1.20;;;24.80;29.20;;;;;;5113204;28;20406;-69
2022/02/25 12:20:10;;;;;;;7.87;0.90;;;25.00;29.40;;;;;;5114764;28;20497;-69
2022/02/25 12:23:02;;;;;;;6.07;0.80;;;25.10;29.10;;;;;;5114576;28;20376;-69
2022/02/25 12:25:40;;;;;;;4.03;0.73;;;25.20;29.10;;;;;;5114931;28;20509;-69
2022/02/25 12:28:27;;;;;;;3.63;0.65;;;25.30;29.20;;;;;;5114416;28;20437;-69
2022/02/25 12:31:24;;;;;;;4.18;0.80;;;25.30;29.00;;;;;;5114664;28;20381;-68
2022/02/25 12:33:59;;;;;;;5.70;1.00;;;25.40;28.90;;;;;;5098730;28;20407;-69
2022/02/25 12:36:28;;;;;;;3.17;0.70;;;25.40;29.00;;;;;;5115094;27;20392;-69
2022/02/25 12:39:14;;;;;;;3.35;0.57;;;25.50;29.00;;;;;;5113328;28;20392;-69
2022/02/25 12:41:47;;;;;;;4.63;0.70;;;25.60;29.10;;;;;;5113041;28;20415;-69
2022/02/25 12:44:19;;;;;;;6.60;0.85;;;25.80;29.00;;;;;;5113479;28;20412;-69
2022/02/25 12:46:56;;;;;;;3.10;0.60;;;25.90;28.80;;;;;;5114223;28;20411;-68
2022/02/25 12:49:24;;;;;;;4.93;0.80;;;26.00;28.60;;;;;;5114595;28;20396;-69
2022/02/25 12:51:53;;;;;;;4.47;0.70;;;26.10;28.50;;;;;;5114290;28;20427;-69
2022/02/25 12:54:23;;;;;;;3.33;0.60;;;26.20;28.50;;;;;;5105755;28;20441;-69